sensor_id;sensor_type;location;lat;lon;timestamp;P1;durP1;ratioP1;P2;durP2;ratioP2
29370;SDS011;16357;52.188;7.838;2023-05-28T00:05:01;10.30;;;3.90;;
29370;SDS011;16357;52.188;7.838;2023-05-28T00:07:27;9.27;;;4.10;;
29370;SDS011;16357;52.188;7.838;2023-05-28T00:09:54;10.13;;;4.07;;
29370;SDS011;16357;52.188;7.838;2023-05-28T00:12:24;9.75;;;4.28;;
29370;SDS011;16357;52.188;7.838;2023-05-28T00:14:51;7.35;;;4.22;;
29370;SDS011;16357;52.188;7.838;2023-05-28T00:17:18;8.07;;;4.13;;
29370;SDS011;16357;52.188;7.838;2023-05-28T00:19:45;6.18;;;3.80;;
29370;SDS011;16357;52.188;7.838;2023-05-28T00:22:11;8.15;;;4.50;;
29370;SDS011;16357;52.188;7.838;2023-05-28T00:24:38;8.63;;;4.05;;
29370;SDS011;16357;52.188;7.838;2023-05-28T00:27:05;9.55;;;3.70;;
29370;SDS011;16357;52.188;7.838;2023-05-28T00:29:32;7.53;;;3.92;;
29370;SDS011;16357;52.188;7.838;2023-05-28T00:31:59;9.63;;;4.00;;
29370;SDS011;16357;52.188;7.838;2023-05-28T00:34:25;7.68;;;3.35;;
29370;SDS011;16357;52.188;7.838;2023-05-28T00:36:52;10.68;;;4.25;;
29370;SDS011;16357;52.188;7.838;2023-05-28T00:39:20;10.65;;;4.38;;
29370;SDS011;16357;52.188;7.838;2023-05-28T00:41:47;5.82;;;3.88;;
29370;SDS011;16357;52.188;7.838;2023-05-28T00:44:13;12.15;;;4.53;;
29370;SDS011;16357;52.188;7.838;2023-05-28T00:46:40;9.82;;;4.75;;
29370;SDS011;16357;52.188;7.838;2023-05-28T00:49:09;7.72;;;4.00;;
29370;SDS011;16357;52.188;7.838;2023-05-28T00:51:37;9.35;;;4.22;;
29370;SDS011;16357;52.188;7.838;2023-05-28T00:54:05;9.68;;;3.97;;
29370;SDS011;16357;52.188;7.838;2023-05-28T00:56:32;9.07;;;4.00;;
29370;SDS011;16357;52.188;7.838;2023-05-28T00:58:58;7.50;;;3.95;;
29370;SDS011;16357;52.188;7.838;2023-05-28T01:01:28;7.82;;;3.60;;
29370;SDS011;16357;52.188;7.838;2023-05-28T01:03:55;8.75;;;4.07;;
29370;SDS011;16357;52.188;7.838;2023-05-28T01:06:22;7.38;;;4.03;;
29370;SDS011;16357;52.188;7.838;2023-05-28T01:08:49;10.25;;;3.95;;
29370;SDS011;16357;52.188;7.838;2023-05-28T01:11:17;8.50;;;4.32;;
29370;SDS011;16357;52.188;7.838;2023-05-28T01:13:46;11.07;;;4.28;;
29370;SDS011;16357;52.188;7.838;2023-05-28T01:16:14;9.43;;;4.53;;
29370;SDS011;16357;52.188;7.838;2023-05-28T01:18:40;8.35;;;4.28;;
29370;SDS011;16357;52.188;7.838;2023-05-28T01:21:10;9.43;;;4.40;;
29370;SDS011;16357;52.188;7.838;2023-05-28T01:23:42;8.93;;;4.50;;
29370;SDS011;16357;52.188;7.838;2023-05-28T01:26:13;8.43;;;4.35;;
29370;SDS011;16357;52.188;7.838;2023-05-28T01:28:44;11.70;;;5.32;;
29370;SDS011;16357;52.188;7.838;2023-05-28T01:31:12;8.30;;;4.75;;
29370;SDS011;16357;52.188;7.838;2023-05-28T01:33:39;9.13;;;5.13;;
29370;SDS011;16357;52.188;7.838;2023-05-28T01:38:46;9.98;;;4.80;;
29370;SDS011;16357;52.188;7.838;2023-05-28T01:41:15;12.30;;;5.28;;
29370;SDS011;16357;52.188;7.838;2023-05-28T01:43:42;13.00;;;5.35;;
29370;SDS011;16357;52.188;7.838;2023-05-28T01:46:09;11.23;;;4.38;;
29370;SDS011;16357;52.188;7.838;2023-05-28T01:48:36;9.30;;;5.25;;
29370;SDS011;16357;52.188;7.838;2023-05-28T01:51:03;10.25;;;4.75;;
29370;SDS011;16357;52.188;7.838;2023-05-28T01:53:31;9.35;;;4.93;;
29370;SDS011;16357;52.188;7.838;2023-05-28T01:55:58;11.95;;;5.28;;
29370;SDS011;16357;52.188;7.838;2023-05-28T01:58:24;9.68;;;4.97;;
29370;SDS011;16357;52.188;7.838;2023-05-28T02:03:57;11.07;;;4.72;;
29370;SDS011;16357;52.188;7.838;2023-05-28T02:06:24;11.10;;;4.45;;
29370;SDS011;16357;52.188;7.838;2023-05-28T02:08:52;14.52;;;5.05;;
29370;SDS011;16357;52.188;7.838;2023-05-28T02:11:18;10.20;;;4.78;;
29370;SDS011;16357;52.188;7.838;2023-05-28T02:13:45;9.55;;;4.50;;
29370;SDS011;16357;52.188;7.838;2023-05-28T02:16:12;9.82;;;4.47;;
29370;SDS011;16357;52.188;7.838;2023-05-28T02:18:44;9.88;;;4.82;;
29370;SDS011;16357;52.188;7.838;2023-05-28T02:21:11;12.40;;;5.13;;
29370;SDS011;16357;52.188;7.838;2023-05-28T02:23:45;14.75;;;5.25;;
29370;SDS011;16357;52.188;7.838;2023-05-28T02:26:12;9.70;;;4.15;;
29370;SDS011;16357;52.188;7.838;2023-05-28T02:28:42;10.93;;;4.47;;
29370;SDS011;16357;52.188;7.838;2023-05-28T02:31:10;8.80;;;4.50;;
29370;SDS011;16357;52.188;7.838;2023-05-28T02:33:37;6.53;;;3.95;;
29370;SDS011;16357;52.188;7.838;2023-05-28T02:36:04;10.48;;;4.88;;
29370;SDS011;16357;52.188;7.838;2023-05-28T02:38:32;9.05;;;4.88;;
29370;SDS011;16357;52.188;7.838;2023-05-28T02:40:58;10.20;;;4.70;;
29370;SDS011;16357;52.188;7.838;2023-05-28T02:43:25;9.65;;;4.75;;
29370;SDS011;16357;52.188;7.838;2023-05-28T02:45:51;11.73;;;4.90;;
29370;SDS011;16357;52.188;7.838;2023-05-28T02:48:18;12.50;;;4.88;;
29370;SDS011;16357;52.188;7.838;2023-05-28T02:50:44;10.50;;;4.28;;
29370;SDS011;16357;52.188;7.838;2023-05-28T02:53:11;11.82;;;4.65;;
29370;SDS011;16357;52.188;7.838;2023-05-28T02:55:37;11.90;;;4.88;;
29370;SDS011;16357;52.188;7.838;2023-05-28T02:58:04;8.95;;;4.60;;
29370;SDS011;16357;52.188;7.838;2023-05-28T03:00:31;8.57;;;5.28;;
29370;SDS011;16357;52.188;7.838;2023-05-28T03:02:58;9.75;;;4.50;;
29370;SDS011;16357;52.188;7.838;2023-05-28T03:05:25;10.13;;;4.50;;
29370;SDS011;16357;52.188;7.838;2023-05-28T03:07:53;12.05;;;5.78;;
29370;SDS011;16357;52.188;7.838;2023-05-28T03:10:19;11.63;;;5.43;;
29370;SDS011;16357;52.188;7.838;2023-05-28T03:12:46;12.60;;;5.00;;
29370;SDS011;16357;52.188;7.838;2023-05-28T03:15:12;12.10;;;5.63;;
29370;SDS011;16357;52.188;7.838;2023-05-28T03:17:40;13.73;;;5.38;;
29370;SDS011;16357;52.188;7.838;2023-05-28T03:20:06;17.17;;;5.65;;
29370;SDS011;16357;52.188;7.838;2023-05-28T03:22:36;11.73;;;5.47;;
29370;SDS011;16357;52.188;7.838;2023-05-28T03:25:03;14.82;;;6.07;;
29370;SDS011;16357;52.188;7.838;2023-05-28T03:27:31;12.27;;;5.32;;
29370;SDS011;16357;52.188;7.838;2023-05-28T03:29:58;13.10;;;5.60;;
29370;SDS011;16357;52.188;7.838;2023-05-28T03:32:24;11.27;;;5.40;;
29370;SDS011;16357;52.188;7.838;2023-05-28T03:34:50;13.05;;;6.30;;
29370;SDS011;16357;52.188;7.838;2023-05-28T03:37:17;12.95;;;5.93;;
29370;SDS011;16357;52.188;7.838;2023-05-28T03:39:43;16.30;;;5.90;;
29370;SDS011;16357;52.188;7.838;2023-05-28T03:42:10;11.45;;;5.85;;
29370;SDS011;16357;52.188;7.838;2023-05-28T03:44:36;16.70;;;6.13;;
29370;SDS011;16357;52.188;7.838;2023-05-28T03:47:03;13.02;;;5.60;;
29370;SDS011;16357;52.188;7.838;2023-05-28T03:49:30;11.38;;;5.80;;
29370;SDS011;16357;52.188;7.838;2023-05-28T03:51:56;12.35;;;5.85;;
29370;SDS011;16357;52.188;7.838;2023-05-28T03:54:23;14.05;;;6.35;;
29370;SDS011;16357;52.188;7.838;2023-05-28T03:56:49;13.63;;;6.20;;
29370;SDS011;16357;52.188;7.838;2023-05-28T03:59:15;15.05;;;6.28;;
29370;SDS011;16357;52.188;7.838;2023-05-28T04:01:42;18.20;;;6.30;;
29370;SDS011;16357;52.188;7.838;2023-05-28T04:04:08;11.93;;;5.68;;
29370;SDS011;16357;52.188;7.838;2023-05-28T04:06:35;14.00;;;6.18;;
29370;SDS011;16357;52.188;7.838;2023-05-28T04:09:02;11.68;;;5.97;;
29370;SDS011;16357;52.188;7.838;2023-05-28T04:11:29;13.00;;;6.07;;
29370;SDS011;16357;52.188;7.838;2023-05-28T04:13:56;11.68;;;6.03;;
29370;SDS011;16357;52.188;7.838;2023-05-28T04:16:26;14.90;;;6.55;;
29370;SDS011;16357;52.188;7.838;2023-05-28T04:18:53;14.25;;;6.43;;
29370;SDS011;16357;52.188;7.838;2023-05-28T04:21:20;12.23;;;6.15;;
29370;SDS011;16357;52.188;7.838;2023-05-28T04:23:49;11.23;;;6.05;;
29370;SDS011;16357;52.188;7.838;2023-05-28T04:26:17;11.82;;;6.20;;
29370;SDS011;16357;52.188;7.838;2023-05-28T04:28:48;17.70;;;6.43;;
29370;SDS011;16357;52.188;7.838;2023-05-28T04:31:19;10.80;;;6.03;;
29370;SDS011;16357;52.188;7.838;2023-05-28T04:33:45;16.52;;;6.97;;
29370;SDS011;16357;52.188;7.838;2023-05-28T04:36:13;12.18;;;6.57;;
29370;SDS011;16357;52.188;7.838;2023-05-28T04:38:40;16.50;;;6.68;;
29370;SDS011;16357;52.188;7.838;2023-05-28T04:41:07;11.65;;;6.50;;
29370;SDS011;16357;52.188;7.838;2023-05-28T04:43:34;13.02;;;6.53;;
29370;SDS011;16357;52.188;7.838;2023-05-28T04:46:02;11.55;;;6.15;;
29370;SDS011;16357;52.188;7.838;2023-05-28T04:48:30;16.00;;;7.00;;
29370;SDS011;16357;52.188;7.838;2023-05-28T04:50:57;17.38;;;6.88;;
29370;SDS011;16357;52.188;7.838;2023-05-28T04:53:24;15.65;;;6.50;;
29370;SDS011;16357;52.188;7.838;2023-05-28T04:55:50;11.40;;;6.30;;
29370;SDS011;16357;52.188;7.838;2023-05-28T04:58:18;12.60;;;6.20;;
29370;SDS011;16357;52.188;7.838;2023-05-28T05:00:44;17.92;;;7.03;;
29370;SDS011;16357;52.188;7.838;2023-05-28T05:03:11;13.15;;;5.93;;
29370;SDS011;16357;52.188;7.838;2023-05-28T05:05:37;11.68;;;6.30;;
29370;SDS011;16357;52.188;7.838;2023-05-28T05:08:06;14.60;;;6.32;;
29370;SDS011;16357;52.188;7.838;2023-05-28T05:10:33;12.50;;;6.70;;
29370;SDS011;16357;52.188;7.838;2023-05-28T05:12:59;12.80;;;6.55;;
29370;SDS011;16357;52.188;7.838;2023-05-28T05:15:26;15.90;;;6.28;;
29370;SDS011;16357;52.188;7.838;2023-05-28T05:17:53;14.02;;;6.50;;
29370;SDS011;16357;52.188;7.838;2023-05-28T05:20:19;10.95;;;5.75;;
29370;SDS011;16357;52.188;7.838;2023-05-28T05:22:46;14.25;;;6.10;;
29370;SDS011;16357;52.188;7.838;2023-05-28T05:25:12;11.55;;;5.60;;
29370;SDS011;16357;52.188;7.838;2023-05-28T05:27:39;9.10;;;5.38;;
29370;SDS011;16357;52.188;7.838;2023-05-28T05:30:05;12.00;;;5.82;;
29370;SDS011;16357;52.188;7.838;2023-05-28T05:32:32;14.32;;;6.30;;
29370;SDS011;16357;52.188;7.838;2023-05-28T05:34:59;13.57;;;6.30;;
29370;SDS011;16357;52.188;7.838;2023-05-28T05:37:28;13.40;;;6.28;;
29370;SDS011;16357;52.188;7.838;2023-05-28T05:39:55;17.17;;;7.05;;
29370;SDS011;16357;52.188;7.838;2023-05-28T05:42:21;11.23;;;5.85;;
29370;SDS011;16357;52.188;7.838;2023-05-28T05:44:47;12.70;;;6.22;;
29370;SDS011;16357;52.188;7.838;2023-05-28T05:47:14;12.52;;;5.72;;
29370;SDS011;16357;52.188;7.838;2023-05-28T05:49:40;14.18;;;6.35;;
29370;SDS011;16357;52.188;7.838;2023-05-28T05:52:07;10.85;;;5.75;;
29370;SDS011;16357;52.188;7.838;2023-05-28T05:54:33;15.95;;;6.25;;
29370;SDS011;16357;52.188;7.838;2023-05-28T05:57:00;13.60;;;5.80;;
29370;SDS011;16357;52.188;7.838;2023-05-28T05:59:28;11.82;;;5.47;;
29370;SDS011;16357;52.188;7.838;2023-05-28T06:01:55;14.43;;;6.22;;
29370;SDS011;16357;52.188;7.838;2023-05-28T06:04:21;16.48;;;6.50;;
29370;SDS011;16357;52.188;7.838;2023-05-28T06:06:48;10.57;;;5.78;;
29370;SDS011;16357;52.188;7.838;2023-05-28T06:09:14;11.07;;;5.72;;
29370;SDS011;16357;52.188;7.838;2023-05-28T06:11:40;12.05;;;5.85;;
29370;SDS011;16357;52.188;7.838;2023-05-28T06:14:07;13.38;;;5.32;;
29370;SDS011;16357;52.188;7.838;2023-05-28T06:16:39;11.38;;;4.97;;
29370;SDS011;16357;52.188;7.838;2023-05-28T06:19:06;10.52;;;5.60;;
29370;SDS011;16357;52.188;7.838;2023-05-28T06:21:34;11.93;;;5.75;;
29370;SDS011;16357;52.188;7.838;2023-05-28T06:24:02;10.63;;;5.63;;
29370;SDS011;16357;52.188;7.838;2023-05-28T06:26:29;9.70;;;5.28;;
29370;SDS011;16357;52.188;7.838;2023-05-28T06:28:55;12.68;;;6.32;;
29370;SDS011;16357;52.188;7.838;2023-05-28T06:31:22;15.02;;;5.20;;
29370;SDS011;16357;52.188;7.838;2023-05-28T06:33:49;11.02;;;5.90;;
29370;SDS011;16357;52.188;7.838;2023-05-28T06:36:15;14.27;;;5.97;;
29370;SDS011;16357;52.188;7.838;2023-05-28T06:38:43;11.32;;;5.35;;
29370;SDS011;16357;52.188;7.838;2023-05-28T06:41:09;11.98;;;5.45;;
29370;SDS011;16357;52.188;7.838;2023-05-28T06:43:37;10.52;;;4.88;;
29370;SDS011;16357;52.188;7.838;2023-05-28T06:46:04;12.27;;;5.47;;
29370;SDS011;16357;52.188;7.838;2023-05-28T06:48:31;10.85;;;4.68;;
29370;SDS011;16357;52.188;7.838;2023-05-28T06:50:57;13.50;;;4.88;;
29370;SDS011;16357;52.188;7.838;2023-05-28T06:53:25;13.32;;;4.90;;
29370;SDS011;16357;52.188;7.838;2023-05-28T06:55:52;10.88;;;4.70;;
29370;SDS011;16357;52.188;7.838;2023-05-28T06:58:18;12.85;;;5.32;;
29370;SDS011;16357;52.188;7.838;2023-05-28T07:00:45;11.48;;;5.10;;
29370;SDS011;16357;52.188;7.838;2023-05-28T07:03:11;11.07;;;4.82;;
29370;SDS011;16357;52.188;7.838;2023-05-28T07:05:39;10.50;;;5.05;;
29370;SDS011;16357;52.188;7.838;2023-05-28T07:10:59;11.20;;;5.00;;
29370;SDS011;16357;52.188;7.838;2023-05-28T07:13:25;10.63;;;4.72;;
29370;SDS011;16357;52.188;7.838;2023-05-28T07:15:51;11.57;;;5.25;;
29370;SDS011;16357;52.188;7.838;2023-05-28T07:18:18;12.35;;;5.22;;
29370;SDS011;16357;52.188;7.838;2023-05-28T07:20:45;10.93;;;4.80;;
29370;SDS011;16357;52.188;7.838;2023-05-28T07:23:11;8.55;;;4.25;;
29370;SDS011;16357;52.188;7.838;2023-05-28T07:25:38;9.02;;;4.22;;
29370;SDS011;16357;52.188;7.838;2023-05-28T07:28:05;9.32;;;4.60;;
29370;SDS011;16357;52.188;7.838;2023-05-28T07:30:31;8.35;;;4.53;;
29370;SDS011;16357;52.188;7.838;2023-05-28T07:32:58;8.73;;;4.28;;
29370;SDS011;16357;52.188;7.838;2023-05-28T07:35:24;8.02;;;4.10;;
29370;SDS011;16357;52.188;7.838;2023-05-28T07:37:52;10.20;;;4.78;;
29370;SDS011;16357;52.188;7.838;2023-05-28T07:40:19;10.38;;;4.43;;
29370;SDS011;16357;52.188;7.838;2023-05-28T07:42:46;9.32;;;3.97;;
29370;SDS011;16357;52.188;7.838;2023-05-28T07:45:15;6.22;;;3.65;;
29370;SDS011;16357;52.188;7.838;2023-05-28T07:47:41;6.78;;;4.15;;
29370;SDS011;16357;52.188;7.838;2023-05-28T07:50:08;8.02;;;4.20;;
29370;SDS011;16357;52.188;7.838;2023-05-28T07:52:36;8.73;;;4.13;;
29370;SDS011;16357;52.188;7.838;2023-05-28T07:55:03;7.35;;;3.95;;
29370;SDS011;16357;52.188;7.838;2023-05-28T07:57:29;7.95;;;4.15;;
29370;SDS011;16357;52.188;7.838;2023-05-28T07:59:56;10.75;;;4.10;;
29370;SDS011;16357;52.188;7.838;2023-05-28T08:02:22;7.93;;;3.75;;
29370;SDS011;16357;52.188;7.838;2023-05-28T08:04:49;9.77;;;4.30;;
29370;SDS011;16357;52.188;7.838;2023-05-28T08:07:16;7.75;;;4.03;;
29370;SDS011;16357;52.188;7.838;2023-05-28T08:09:42;8.93;;;3.65;;
29370;SDS011;16357;52.188;7.838;2023-05-28T08:12:09;9.05;;;4.22;;
29370;SDS011;16357;52.188;7.838;2023-05-28T08:14:35;10.98;;;4.50;;
29370;SDS011;16357;52.188;7.838;2023-05-28T08:17:02;11.80;;;4.32;;
29370;SDS011;16357;52.188;7.838;2023-05-28T08:19:28;10.82;;;4.13;;
29370;SDS011;16357;52.188;7.838;2023-05-28T08:21:58;8.10;;;3.55;;
29370;SDS011;16357;52.188;7.838;2023-05-28T08:24:24;6.88;;;3.72;;
29370;SDS011;16357;52.188;7.838;2023-05-28T08:26:51;9.93;;;3.97;;
29370;SDS011;16357;52.188;7.838;2023-05-28T08:29:17;9.05;;;4.00;;
29370;SDS011;16357;52.188;7.838;2023-05-28T08:31:44;9.30;;;4.15;;
29370;SDS011;16357;52.188;7.838;2023-05-28T08:34:19;7.87;;;3.90;;
29370;SDS011;16357;52.188;7.838;2023-05-28T08:36:45;7.88;;;4.05;;
29370;SDS011;16357;52.188;7.838;2023-05-28T08:39:12;8.73;;;3.78;;
29370;SDS011;16357;52.188;7.838;2023-05-28T08:41:39;7.85;;;4.10;;
29370;SDS011;16357;52.188;7.838;2023-05-28T08:44:06;11.85;;;4.18;;
29370;SDS011;16357;52.188;7.838;2023-05-28T08:46:32;9.73;;;4.32;;
29370;SDS011;16357;52.188;7.838;2023-05-28T08:48:59;6.43;;;3.53;;
29370;SDS011;16357;52.188;7.838;2023-05-28T08:51:26;10.95;;;4.47;;
29370;SDS011;16357;52.188;7.838;2023-05-28T08:53:54;9.13;;;4.30;;
29370;SDS011;16357;52.188;7.838;2023-05-28T08:56:22;7.65;;;4.28;;
29370;SDS011;16357;52.188;7.838;2023-05-28T08:58:49;7.05;;;3.63;;
29370;SDS011;16357;52.188;7.838;2023-05-28T09:01:17;7.22;;;4.03;;
29370;SDS011;16357;52.188;7.838;2023-05-28T09:03:44;7.70;;;3.67;;
29370;SDS011;16357;52.188;7.838;2023-05-28T09:06:10;9.18;;;4.32;;
29370;SDS011;16357;52.188;7.838;2023-05-28T09:08:38;7.18;;;3.53;;
29370;SDS011;16357;52.188;7.838;2023-05-28T09:11:08;8.38;;;3.50;;
29370;SDS011;16357;52.188;7.838;2023-05-28T09:13:43;7.38;;;3.60;;
29370;SDS011;16357;52.188;7.838;2023-05-28T09:16:13;9.17;;;3.83;;
29370;SDS011;16357;52.188;7.838;2023-05-28T09:18:51;5.93;;;3.45;;
29370;SDS011;16357;52.188;7.838;2023-05-28T09:21:28;9.45;;;3.78;;
29370;SDS011;16357;52.188;7.838;2023-05-28T09:23:54;7.07;;;3.53;;
29370;SDS011;16357;52.188;7.838;2023-05-28T09:26:21;9.38;;;3.92;;
29370;SDS011;16357;52.188;7.838;2023-05-28T09:28:48;7.20;;;3.80;;
29370;SDS011;16357;52.188;7.838;2023-05-28T09:31:17;20.77;;;3.80;;
29370;SDS011;16357;52.188;7.838;2023-05-28T09:33:44;6.15;;;3.33;;
29370;SDS011;16357;52.188;7.838;2023-05-28T09:36:11;9.48;;;4.28;;
29370;SDS011;16357;52.188;7.838;2023-05-28T09:38:43;9.55;;;3.90;;
29370;SDS011;16357;52.188;7.838;2023-05-28T09:43:46;8.25;;;4.05;;
29370;SDS011;16357;52.188;7.838;2023-05-28T09:46:20;10.68;;;4.43;;
29370;SDS011;16357;52.188;7.838;2023-05-28T09:48:47;9.68;;;4.28;;
29370;SDS011;16357;52.188;7.838;2023-05-28T09:51:13;9.05;;;4.13;;
29370;SDS011;16357;52.188;7.838;2023-05-28T09:53:42;7.40;;;3.60;;
29370;SDS011;16357;52.188;7.838;2023-05-28T09:56:10;8.40;;;4.43;;
29370;SDS011;16357;52.188;7.838;2023-05-28T09:58:37;8.07;;;3.40;;
29370;SDS011;16357;52.188;7.838;2023-05-28T10:01:25;7.30;;;4.00;;
29370;SDS011;16357;52.188;7.838;2023-05-28T10:04:01;9.15;;;4.03;;
29370;SDS011;16357;52.188;7.838;2023-05-28T10:06:34;6.75;;;3.60;;
29370;SDS011;16357;52.188;7.838;2023-05-28T10:09:03;8.38;;;4.15;;
29370;SDS011;16357;52.188;7.838;2023-05-28T10:11:34;9.40;;;4.10;;
29370;SDS011;16357;52.188;7.838;2023-05-28T10:14:07;8.45;;;4.07;;
29370;SDS011;16357;52.188;7.838;2023-05-28T10:16:34;8.25;;;3.88;;
29370;SDS011;16357;52.188;7.838;2023-05-28T10:19:01;9.20;;;3.90;;
29370;SDS011;16357;52.188;7.838;2023-05-28T10:21:28;9.13;;;3.97;;
29370;SDS011;16357;52.188;7.838;2023-05-28T10:23:55;9.75;;;3.90;;
29370;SDS011;16357;52.188;7.838;2023-05-28T10:26:23;8.65;;;3.58;;
29370;SDS011;16357;52.188;7.838;2023-05-28T10:28:54;8.00;;;3.33;;
29370;SDS011;16357;52.188;7.838;2023-05-28T10:31:21;7.57;;;3.28;;
29370;SDS011;16357;52.188;7.838;2023-05-28T10:33:49;7.65;;;3.55;;
29370;SDS011;16357;52.188;7.838;2023-05-28T10:36:16;6.75;;;3.08;;
29370;SDS011;16357;52.188;7.838;2023-05-28T10:38:43;9.07;;;4.10;;
29370;SDS011;16357;52.188;7.838;2023-05-28T10:41:11;7.72;;;3.00;;
29370;SDS011;16357;52.188;7.838;2023-05-28T10:43:44;8.02;;;3.30;;
29370;SDS011;16357;52.188;7.838;2023-05-28T10:57:08;6.65;;;3.75;;
29370;SDS011;16357;52.188;7.838;2023-05-28T11:02:22;10.70;;;4.50;;
29370;SDS011;16357;52.188;7.838;2023-05-28T11:07:33;8.93;;;4.25;;
29370;SDS011;16357;52.188;7.838;2023-05-28T11:10:11;8.63;;;3.80;;
29370;SDS011;16357;52.188;7.838;2023-05-28T11:12:39;6.28;;;3.58;;
29370;SDS011;16357;52.188;7.838;2023-05-28T11:15:07;6.97;;;3.53;;
29370;SDS011;16357;52.188;7.838;2023-05-28T11:17:39;7.70;;;3.40;;
29370;SDS011;16357;52.188;7.838;2023-05-28T11:20:23;8.82;;;3.53;;
29370;SDS011;16357;52.188;7.838;2023-05-28T11:22:51;8.55;;;3.83;;
29370;SDS011;16357;52.188;7.838;2023-05-28T11:25:18;8.65;;;3.90;;
29370;SDS011;16357;52.188;7.838;2023-05-28T11:27:48;13.30;;;3.88;;
29370;SDS011;16357;52.188;7.838;2023-05-28T11:30:17;6.88;;;3.40;;
29370;SDS011;16357;52.188;7.838;2023-05-28T11:32:44;9.57;;;3.92;;
29370;SDS011;16357;52.188;7.838;2023-05-28T11:35:13;7.90;;;3.13;;
29370;SDS011;16357;52.188;7.838;2023-05-28T11:37:41;8.50;;;3.40;;
29370;SDS011;16357;52.188;7.838;2023-05-28T11:40:11;8.38;;;3.50;;
29370;SDS011;16357;52.188;7.838;2023-05-28T11:42:39;6.20;;;3.90;;
29370;SDS011;16357;52.188;7.838;2023-05-28T11:45:08;10.88;;;4.05;;
29370;SDS011;16357;52.188;7.838;2023-05-28T11:47:37;7.03;;;4.00;;
29370;SDS011;16357;52.188;7.838;2023-05-28T11:50:14;8.20;;;4.00;;
29370;SDS011;16357;52.188;7.838;2023-05-28T11:52:41;10.32;;;4.13;;
29370;SDS011;16357;52.188;7.838;2023-05-28T11:55:09;8.02;;;3.28;;
29370;SDS011;16357;52.188;7.838;2023-05-28T11:57:36;8.77;;;3.80;;
29370;SDS011;16357;52.188;7.838;2023-05-28T12:00:06;7.60;;;3.60;;
29370;SDS011;16357;52.188;7.838;2023-05-28T12:02:47;7.60;;;3.35;;
29370;SDS011;16357;52.188;7.838;2023-05-28T12:05:16;8.38;;;3.83;;
29370;SDS011;16357;52.188;7.838;2023-05-28T12:07:44;8.70;;;3.78;;
29370;SDS011;16357;52.188;7.838;2023-05-28T12:10:12;8.20;;;3.83;;
29370;SDS011;16357;52.188;7.838;2023-05-28T12:12:48;7.82;;;4.00;;
29370;SDS011;16357;52.188;7.838;2023-05-28T12:15:27;6.72;;;3.60;;
29370;SDS011;16357;52.188;7.838;2023-05-28T12:17:58;11.80;;;4.57;;
29370;SDS011;16357;52.188;7.838;2023-05-28T12:20:30;10.18;;;4.45;;
29370;SDS011;16357;52.188;7.838;2023-05-28T12:23:05;7.65;;;3.47;;
29370;SDS011;16357;52.188;7.838;2023-05-28T12:28:09;6.53;;;3.20;;
29370;SDS011;16357;52.188;7.838;2023-05-28T12:30:37;7.82;;;3.45;;
29370;SDS011;16357;52.188;7.838;2023-05-28T12:33:04;7.47;;;3.72;;
29370;SDS011;16357;52.188;7.838;2023-05-28T12:35:31;6.07;;;3.10;;
29370;SDS011;16357;52.188;7.838;2023-05-28T12:37:57;8.55;;;3.50;;
29370;SDS011;16357;52.188;7.838;2023-05-28T12:40:24;6.70;;;3.45;;
29370;SDS011;16357;52.188;7.838;2023-05-28T12:42:52;7.93;;;3.67;;
29370;SDS011;16357;52.188;7.838;2023-05-28T12:45:18;7.75;;;3.70;;
29370;SDS011;16357;52.188;7.838;2023-05-28T12:47:45;7.93;;;3.40;;
29370;SDS011;16357;52.188;7.838;2023-05-28T12:50:11;5.75;;;3.28;;
29370;SDS011;16357;52.188;7.838;2023-05-28T12:52:37;7.63;;;3.53;;
29370;SDS011;16357;52.188;7.838;2023-05-28T12:55:04;8.32;;;3.30;;
29370;SDS011;16357;52.188;7.838;2023-05-28T12:57:41;6.13;;;2.85;;
29370;SDS011;16357;52.188;7.838;2023-05-28T13:00:07;8.00;;;3.67;;
29370;SDS011;16357;52.188;7.838;2023-05-28T13:02:37;6.03;;;3.20;;
29370;SDS011;16357;52.188;7.838;2023-05-28T13:05:04;6.47;;;3.10;;
29370;SDS011;16357;52.188;7.838;2023-05-28T13:07:31;6.18;;;3.38;;
29370;SDS011;16357;52.188;7.838;2023-05-28T13:09:58;6.95;;;3.65;;
29370;SDS011;16357;52.188;7.838;2023-05-28T13:12:25;9.02;;;5.70;;
29370;SDS011;16357;52.188;7.838;2023-05-28T13:14:51;8.00;;;4.05;;
29370;SDS011;16357;52.188;7.838;2023-05-28T13:17:18;8.20;;;3.83;;
29370;SDS011;16357;52.188;7.838;2023-05-28T13:19:47;7.43;;;3.50;;
29370;SDS011;16357;52.188;7.838;2023-05-28T13:22:13;7.15;;;3.17;;
29370;SDS011;16357;52.188;7.838;2023-05-28T13:24:40;8.98;;;3.50;;
29370;SDS011;16357;52.188;7.838;2023-05-28T13:27:12;7.00;;;3.15;;
29370;SDS011;16357;52.188;7.838;2023-05-28T13:29:39;4.80;;;3.08;;
29370;SDS011;16357;52.188;7.838;2023-05-28T13:32:06;6.75;;;3.58;;
29370;SDS011;16357;52.188;7.838;2023-05-28T13:34:32;6.47;;;3.40;;
29370;SDS011;16357;52.188;7.838;2023-05-28T13:37:02;6.18;;;3.00;;
29370;SDS011;16357;52.188;7.838;2023-05-28T13:39:28;8.15;;;3.20;;
29370;SDS011;16357;52.188;7.838;2023-05-28T13:41:55;7.10;;;3.33;;
29370;SDS011;16357;52.188;7.838;2023-05-28T13:44:22;6.30;;;3.08;;
29370;SDS011;16357;52.188;7.838;2023-05-28T13:46:53;7.25;;;3.38;;
29370;SDS011;16357;52.188;7.838;2023-05-28T13:49:20;7.97;;;4.07;;
29370;SDS011;16357;52.188;7.838;2023-05-28T13:51:46;9.68;;;3.42;;
29370;SDS011;16357;52.188;7.838;2023-05-28T13:54:13;9.98;;;3.17;;
29370;SDS011;16357;52.188;7.838;2023-05-28T13:56:41;9.00;;;3.13;;
29370;SDS011;16357;52.188;7.838;2023-05-28T13:59:08;9.85;;;3.65;;
29370;SDS011;16357;52.188;7.838;2023-05-28T14:01:35;7.88;;;3.58;;
29370;SDS011;16357;52.188;7.838;2023-05-28T14:04:02;8.52;;;3.58;;
29370;SDS011;16357;52.188;7.838;2023-05-28T14:06:29;7.57;;;3.00;;
29370;SDS011;16357;52.188;7.838;2023-05-28T14:08:58;8.05;;;3.38;;
29370;SDS011;16357;52.188;7.838;2023-05-28T14:11:24;7.60;;;3.42;;
29370;SDS011;16357;52.188;7.838;2023-05-28T14:14:11;6.75;;;3.08;;
29370;SDS011;16357;52.188;7.838;2023-05-28T14:16:37;7.40;;;3.05;;
29370;SDS011;16357;52.188;7.838;2023-05-28T14:19:04;5.95;;;2.88;;
29370;SDS011;16357;52.188;7.838;2023-05-28T14:21:30;5.97;;;2.85;;
29370;SDS011;16357;52.188;7.838;2023-05-28T14:23:57;5.88;;;3.38;;
29370;SDS011;16357;52.188;7.838;2023-05-28T14:26:23;7.72;;;3.15;;
29370;SDS011;16357;52.188;7.838;2023-05-28T14:28:51;6.72;;;3.25;;
29370;SDS011;16357;52.188;7.838;2023-05-28T14:31:18;6.03;;;3.10;;
29370;SDS011;16357;52.188;7.838;2023-05-28T14:33:44;7.45;;;3.30;;
29370;SDS011;16357;52.188;7.838;2023-05-28T14:36:11;6.63;;;3.40;;
29370;SDS011;16357;52.188;7.838;2023-05-28T14:38:41;7.20;;;3.40;;
29370;SDS011;16357;52.188;7.838;2023-05-28T14:41:07;7.13;;;3.28;;
29370;SDS011;16357;52.188;7.838;2023-05-28T14:43:34;9.05;;;3.10;;
29370;SDS011;16357;52.188;7.838;2023-05-28T14:46:00;8.63;;;3.67;;
29370;SDS011;16357;52.188;7.838;2023-05-28T14:48:28;5.50;;;3.25;;
29370;SDS011;16357;52.188;7.838;2023-05-28T14:50:54;7.03;;;3.17;;
29370;SDS011;16357;52.188;7.838;2023-05-28T14:53:21;8.38;;;3.38;;
29370;SDS011;16357;52.188;7.838;2023-05-28T14:55:48;7.03;;;3.10;;
29370;SDS011;16357;52.188;7.838;2023-05-28T14:58:15;7.68;;;2.97;;
29370;SDS011;16357;52.188;7.838;2023-05-28T15:00:41;8.13;;;3.60;;
29370;SDS011;16357;52.188;7.838;2023-05-28T15:03:08;8.13;;;3.60;;
29370;SDS011;16357;52.188;7.838;2023-05-28T15:05:34;5.22;;;3.05;;
29370;SDS011;16357;52.188;7.838;2023-05-28T15:08:01;5.63;;;3.00;;
29370;SDS011;16357;52.188;7.838;2023-05-28T15:10:27;6.30;;;3.28;;
29370;SDS011;16357;52.188;7.838;2023-05-28T15:12:54;6.90;;;3.70;;
29370;SDS011;16357;52.188;7.838;2023-05-28T15:15:22;9.60;;;3.47;;
29370;SDS011;16357;52.188;7.838;2023-05-28T15:17:51;4.95;;;2.72;;
29370;SDS011;16357;52.188;7.838;2023-05-28T15:20:17;8.07;;;3.70;;